Time;durP1;ratioP1;P1;durP2;ratioP2;P2;SDS_P1;SDS_P2;PMS_P1;PMS_P2;Temp;Humidity;BMP_temperature;BMP_pressure;BME280_temperature;BME280_humidity;BME280_pressure;Samples;Min_cycle;Max_cycle;Signal;HPM_P1;HPM_P2
2023/06/21 20:37:05;;;;;;;11.70;8.50;;;;;;;19.73;100.00;101245.14;104416;1280;602881;-65
2023/06/21 20:39:35;;;;;;;14.00;9.00;;;;;;;19.61;100.00;101248.89;106243;1261;62175;-65
2023/06/21 20:42:05;;;;;;;12.90;8.50;;;;;;;19.50;100.00;101245.66;107042;1247;58959;-66
2023/06/21 20:44:34;;;;;;;15.80;8.80;;;;;;;19.44;100.00;101242.75;107079;1247;71325;-66
2023/06/21 20:47:05;;;;;;;12.00;8.20;;;;;;;19.49;100.00;101244.98;106778;1251;70797;-66
2023/06/21 20:49:34;;;;;;;13.10;8.80;;;;;;;19.51;100.00;101247.00;106563;1252;271978;-69
2023/06/21 20:52:04;;;;;;;13.50;8.60;;;;;;;19.50;100.00;101243.23;107030;1247;73819;-67
2023/06/21 20:54:33;;;;;;;12.90;8.70;;;;;;;19.46;100.00;101241.02;107010;1248;59084;-66
2023/06/21 20:57:02;;;;;;;14.00;8.50;;;;;;;19.39;100.00;101242.20;107002;1247;58537;-68
2023/06/21 20:59:31;;;;;;;12.30;8.10;;;;;;;19.30;100.00;101244.85;107029;1245;72273;-68
2023/06/21 21:02:01;;;;;;;12.70;9.00;;;;;;;19.24;100.00;101241.60;107098;1246;72121;-68
2023/06/21 21:04:30;;;;;;;11.30;8.30;;;;;;;19.19;100.00;101245.84;107079;1248;60705;-66
2023/06/21 21:06:59;;;;;;;16.10;8.80;;;;;;;19.10;100.00;101246.56;106987;1248;63409;-70
2023/06/21 21:09:28;;;;;;;13.50;8.90;;;;;;;19.10;100.00;101250.34;106949;1248;59172;-70
2023/06/21 21:11:57;;;;;;;15.20;9.00;;;;;;;19.08;100.00;101241.54;107030;1247;58986;-73
2023/06/21 21:14:26;;;;;;;12.70;9.20;;;;;;;19.25;100.00;101253.02;107066;1254;62108;-73
2023/06/21 21:16:55;;;;;;;11.70;8.10;;;;;;;19.28;100.00;101251.81;107214;1248;61779;-76
2023/06/21 21:19:24;;;;;;;14.20;8.90;;;;;;;19.23;100.00;101251.59;107100;1248;59170;-73
2023/06/21 21:21:53;;;;;;;14.60;10.30;;;;;;;19.21;100.00;101252.00;107102;1248;62657;-73
2023/06/21 21:24:22;;;;;;;16.50;9.50;;;;;;;19.22;100.00;101245.94;106990;1248;59034;-74
2023/06/21 21:26:51;;;;;;;17.50;9.50;;;;;;;19.31;100.00;101237.01;107236;1247;58894;-74
2023/06/21 21:29:19;;;;;;;13.30;9.50;;;;;;;19.35;100.00;101238.83;107029;1248;72654;-73
2023/06/21 21:31:53;;;;;;;12.00;8.70;;;;;;;19.30;100.00;101239.63;106984;1249;61632;-74
2023/06/21 21:34:23;;;;;;;12.30;9.50;;;;;;;19.16;100.00;101242.77;107171;1248;59237;-75
2023/06/21 21:36:52;;;;;;;15.50;9.80;;;;;;;18.96;100.00;101242.11;107141;1255;63576;-73
2023/06/21 21:39:21;;;;;;;16.00;9.80;;;;;;;18.86;100.00;101243.30;107142;1248;57630;-73
2023/06/21 21:41:51;;;;;;;14.80;10.20;;;;;;;18.77;100.00;101241.05;107189;1258;60366;-72
2023/06/21 21:44:20;;;;;;;14.00;10.30;;;;;;;18.71;100.00;101239.64;106999;1247;61791;-72
2023/06/21 21:46:50;;;;;;;16.30;10.90;;;;;;;18.66;100.00;101240.68;106991;1248;73072;-72
2023/06/21 21:49:19;;;;;;;13.70;9.90;;;;;;;18.68;100.00;101242.40;107012;1249;70184;-72
2023/06/21 21:51:48;;;;;;;13.60;10.10;;;;;;;18.64;100.00;101245.95;107038;1248;73537;-71
2023/06/21 21:54:20;;;;;;;13.50;9.50;;;;;;;18.59;100.00;101253.02;107055;1248;62676;-71
2023/06/21 21:56:49;;;;;;;12.70;9.30;;;;;;;18.49;100.00;101255.90;107062;1247;61522;-72
2023/06/21 21:59:18;;;;;;;13.10;9.00;;;;;;;18.36;100.00;101262.31;106941;1247;70691;-71
2023/06/21 22:01:48;;;;;;;15.00;9.70;;;;;;;18.27;100.00;101263.20;107018;1248;71955;-72
2023/06/21 22:04:17;;;;;;;13.00;9.20;;;;;;;18.28;100.00;101262.91;107057;1247;60327;-72
2023/06/21 22:06:46;;;;;;;14.90;11.30;;;;;;;18.29;100.00;101268.11;107022;1248;75270;-71
2023/06/21 22:09:15;;;;;;;16.60;10.70;;;;;;;18.33;100.00;101265.73;106922;1251;63129;-70
2023/06/21 22:11:45;;;;;;;15.70;10.40;;;;;;;18.35;100.00;101265.23;107090;1246;61844;-73
2023/06/21 22:14:14;;;;;;;16.60;10.20;;;;;;;18.45;100.00;101270.78;107140;1259;72798;-75
2023/06/21 22:16:45;;;;;;;17.90;11.90;;;;;;;18.51;100.00;101270.94;107016;1248;61308;-72
2023/06/21 22:19:16;;;;;;;18.40;12.20;;;;;;;18.58;100.00;101277.40;106995;1258;59263;-73
2023/06/21 22:21:52;;;;;;;17.00;11.40;;;;;;;18.70;100.00;101282.29;107112;1248;73030;-76
2023/06/21 22:24:22;;;;;;;15.60;11.20;;;;;;;18.64;100.00;101281.61;106885;1249;57861;-74
2023/06/21 22:26:51;;;;;;;18.00;10.70;;;;;;;18.55;100.00;101286.02;107038;1248;58992;-74
2023/06/21 22:29:23;;;;;;;14.60;10.10;;;;;;;18.41;100.00;101286.73;107156;1259;62347;-73
2023/06/21 22:31:52;;;;;;;14.10;9.60;;;;;;;18.22;100.00;101292.55;107086;1250;61393;-76
2023/06/21 22:34:22;;;;;;;15.40;9.80;;;;;;;18.02;100.00;101297.31;107191;1248;59816;-75
2023/06/21 22:36:51;;;;;;;14.30;9.90;;;;;;;17.87;100.00;101304.21;106961;1259;63186;-74
2023/06/21 22:39:21;;;;;;;17.60;12.00;;;;;;;17.82;100.00;101305.34;107044;1252;62386;-73
2023/06/21 22:41:50;;;;;;;16.50;12.10;;;;;;;17.99;100.00;101307.45;107252;1246;61712;-74
2023/06/21 22:44:21;;;;;;;14.30;10.60;;;;;;;18.10;100.00;101307.30;107118;1259;71415;-72
2023/06/21 22:46:50;;;;;;;14.70;11.20;;;;;;;18.14;100.00;101305.98;107078;1259;62147;-73
2023/06/21 22:49:22;;;;;;;13.60;10.60;;;;;;;18.13;100.00;101306.95;107178;1255;59223;-73
2023/06/21 22:51:51;;;;;;;15.50;11.10;;;;;;;18.07;100.00;101314.46;107172;1248;63256;-73
2023/06/21 22:54:20;;;;;;;16.70;10.80;;;;;;;18.01;100.00;101315.73;107016;1248;58904;-74
2023/06/21 22:56:49;;;;;;;19.60;11.60;;;;;;;17.92;100.00;101316.96;107149;1246;59038;-72
2023/06/21 22:59:18;;;;;;;17.00;11.40;;;;;;;17.86;100.00;101318.36;106958;1249;70960;-74
2023/06/21 23:01:48;;;;;;;14.60;10.30;;;;;;;17.84;100.00;101322.59;107119;1247;71752;-74
2023/06/21 23:04:17;;;;;;;15.80;11.50;;;;;;;17.83;100.00;101324.14;106969;1247;71103;-74
2023/06/21 23:06:46;;;;;;;16.20;10.80;;;;;;;17.81;100.00;101320.94;107101;1248;62872;-73
2023/06/21 23:09:15;;;;;;;17.20;11.50;;;;;;;17.83;100.00;101319.77;107057;1248;62138;-73
2023/06/21 23:11:43;;;;;;;15.70;11.20;;;;;;;17.85;100.00;101311.98;106950;1251;61596;-74
2023/06/21 23:14:18;;;;;;;16.20;11.30;;;;;;;17.85;100.00;101306.46;107086;1248;61828;-73
2023/06/21 23:16:47;;;;;;;15.90;11.30;;;;;;;17.85;100.00;101305.58;106946;1248;61824;-72
2023/06/21 23:19:18;;;;;;;14.00;10.80;;;;;;;17.84;100.00;101302.69;106961;1248;59647;-75
2023/06/21 23:21:47;;;;;;;17.10;11.40;;;;;;;17.86;100.00;101300.23;107133;1248;73640;-73
2023/06/21 23:24:16;;;;;;;17.80;11.80;;;;;;;17.90;100.00;101299.27;106848;1248;58930;-73
2023/06/21 23:26:48;;;;;;;17.00;11.50;;;;;;;17.90;100.00;101300.54;107023;1248;57419;-73
2023/06/21 23:29:20;;;;;;;18.50;13.40;;;;;;;17.86;100.00;101301.43;106933;1248;61147;-74
2023/06/21 23:31:49;;;;;;;17.70;11.90;;;;;;;17.93;100.00;101302.86;106963;1248;61982;-74
2023/06/21 23:34:20;;;;;;;19.00;11.80;;;;;;;17.94;100.00;101299.82;106953;1259;59158;-74
2023/06/21 23:36:50;;;;;;;18.20;12.00;;;;;;;17.89;100.00;101294.80;106922;1247;72857;-74
2023/06/21 23:39:19;;;;;;;14.00;10.00;;;;;;;17.86;100.00;101294.20;107084;1248;58262;-75
2023/06/21 23:41:48;;;;;;;15.30;10.50;;;;;;;17.76;100.00;101294.75;107152;1248;58155;-75
2023/06/21 23:44:17;;;;;;;14.50;9.90;;;;;;;17.66;100.00;101301.54;107066;1247;63891;-75
2023/06/21 23:46:45;;;;;;;13.60;9.80;;;;;;;17.53;100.00;101300.27;107201;1253;72762;-73
2023/06/21 23:49:14;;;;;;;15.00;11.30;;;;;;;17.45;100.00;101301.69;107105;1249;60283;-74
2023/06/21 23:51:43;;;;;;;18.30;10.20;;;;;;;17.42;100.00;101301.92;106941;1248;62443;-73
2023/06/21 23:54:12;;;;;;;15.50;10.80;;;;;;;17.51;100.00;101307.34;106918;1248;58816;-73
2023/06/21 23:56:41;;;;;;;18.10;12.10;;;;;;;17.68;100.00;101307.35;107012;1248;61168;-73
2023/06/21 23:59:09;;;;;;;18.10;12.40;;;;;;;17.69;100.00;101303.33;106931;1247;71357;-73
